Time;durP1;ratioP1;P1;durP2;ratioP2;P2;SDS_P1;SDS_P2;PMS_P1;PMS_P2;Temp;Humidity;BMP_temperature;BMP_pressure;BME280_temperature;BME280_humidity;BME280_pressure;Samples;Min_cycle;Max_cycle;Signal;HPM_P1;HPM_P2
2021/07/23 00:01:19;;;;;;;12.82;10.25;;;16.10;99.90;;;;;;5132722;27;20027;-81
2021/07/23 00:03:47;;;;;;;22.15;10.65;;;16.10;99.90;;;;;;5131665;27;20023;-79
2021/07/23 00:06:14;;;;;;;14.77;9.10;;;16.10;99.90;;;;;;5132822;27;20023;-79
2021/07/23 00:08:40;;;;;;;15.98;10.65;;;16.00;99.90;;;;;;5132915;27;20043;-79
2021/07/23 00:11:05;;;;;;;22.55;12.75;;;16.00;99.90;;;;;;5133032;27;20392;-80
2021/07/23 00:13:31;;;;;;;23.13;11.70;;;16.00;99.90;;;;;;5132607;27;20503;-79
2021/07/23 00:15:56;;;;;;;14.38;9.35;;;16.00;99.90;;;;;;5134091;27;20046;-80
2021/07/23 00:18:22;;;;;;;14.45;9.52;;;16.00;99.90;;;;;;5132024;27;20484;-80
2021/07/23 00:20:48;;;;;;;17.17;9.95;;;15.90;99.90;;;;;;5133956;27;20031;-80
2021/07/23 00:23:14;;;;;;;14.25;9.43;;;15.90;99.90;;;;;;5114984;27;20071;-80
2021/07/23 00:25:40;;;;;;;17.98;9.75;;;15.90;99.90;;;;;;5132597;27;20101;-81
2021/07/23 00:28:05;;;;;;;18.92;9.98;;;16.00;99.90;;;;;;5132633;27;20019;-80
2021/07/23 00:30:31;;;;;;;16.95;11.07;;;16.00;99.90;;;;;;5133852;27;20011;-79
2021/07/23 00:32:58;;;;;;;16.55;10.52;;;16.00;99.90;;;;;;5132225;27;20027;-79
2021/07/23 00:35:24;;;;;;;11.32;8.95;;;15.90;99.90;;;;;;5132592;27;20023;-80
2021/07/23 00:37:50;;;;;;;16.67;10.75;;;15.90;99.90;;;;;;5131292;27;20011;-79
2021/07/23 00:40:16;;;;;;;15.07;10.38;;;15.90;99.90;;;;;;5132475;27;20381;-80
2021/07/23 00:42:42;;;;;;;13.70;9.13;;;15.80;99.90;;;;;;5132484;28;20016;-80
2021/07/23 00:45:09;;;;;;;15.88;9.38;;;15.90;99.90;;;;;;5132483;28;20076;-79
2021/07/23 00:47:41;;;;;;;12.80;8.90;;;15.80;99.90;;;;;;5131982;28;20061;-80
2021/07/23 00:50:07;;;;;;;17.15;9.48;;;15.80;99.90;;;;;;5133664;27;20474;-79
2021/07/23 00:52:33;;;;;;;23.15;10.60;;;15.80;99.90;;;;;;5132094;28;20495;-80
2021/07/23 00:55:01;;;;;;;18.67;9.35;;;15.80;99.90;;;;;;5133664;28;20054;-80
2021/07/23 00:57:27;;;;;;;12.80;8.40;;;15.80;99.90;;;;;;5132350;28;20054;-81
2021/07/23 00:59:53;;;;;;;12.80;8.13;;;15.80;99.90;;;;;;5133476;28;20074;-80
2021/07/23 01:02:19;;;;;;;11.43;8.40;;;15.80;99.90;;;;;;5133345;28;20069;-80
2021/07/23 01:04:45;;;;;;;11.82;8.50;;;15.80;99.90;;;;;;5133638;28;20031;-80
2021/07/23 01:07:12;;;;;;;12.80;9.48;;;15.90;99.90;;;;;;5132237;28;20024;-80
2021/07/23 01:09:38;;;;;;;18.60;9.73;;;15.90;99.90;;;;;;5133401;28;20035;-80
2021/07/23 01:12:05;;;;;;;13.52;9.13;;;15.80;99.90;;;;;;5132304;28;20016;-80
2021/07/23 01:14:32;;;;;;;18.65;10.10;;;15.90;99.90;;;;;;5132085;28;20098;-80
2021/07/23 01:16:58;;;;;;;16.15;9.07;;;15.90;99.90;;;;;;5131882;28;20164;-80
2021/07/23 01:19:26;;;;;;;16.58;9.48;;;15.90;99.90;;;;;;5131763;28;20118;-79
2021/07/23 01:21:56;;;;;;;17.15;9.98;;;15.90;99.90;;;;;;5132175;28;20020;-79
2021/07/23 01:24:22;;;;;;;16.92;9.60;;;15.90;99.90;;;;;;5131845;28;20161;-79
2021/07/23 01:26:52;;;;;;;12.65;8.75;;;15.90;99.90;;;;;;5132073;28;20051;-79
2021/07/23 01:29:18;;;;;;;16.60;9.35;;;15.90;99.90;;;;;;5133141;27;20031;-80
2021/07/23 01:31:44;;;;;;;13.18;9.45;;;15.90;99.90;;;;;;5137248;27;20051;-79
2021/07/23 01:34:09;;;;;;;13.20;10.00;;;15.90;99.90;;;;;;5135532;27;20023;-79
2021/07/23 01:36:35;;;;;;;14.35;9.65;;;15.90;99.90;;;;;;5135852;27;20019;-80
2021/07/23 01:39:01;;;;;;;12.68;9.35;;;15.90;99.90;;;;;;5134890;27;20020;-79
2021/07/23 01:41:28;;;;;;;14.82;9.23;;;15.90;99.90;;;;;;5135460;27;20380;-80
2021/07/23 01:43:53;;;;;;;16.38;9.65;;;15.90;99.90;;;;;;5136068;27;20034;-79
2021/07/23 01:46:19;;;;;;;15.05;9.77;;;15.90;99.90;;;;;;5135714;27;20354;-79
2021/07/23 01:48:44;;;;;;;16.48;9.15;;;15.90;99.90;;;;;;5136889;27;20118;-79
2021/07/23 01:51:10;;;;;;;16.55;8.93;;;15.90;99.90;;;;;;5135420;27;20152;-80
2021/07/23 01:53:36;;;;;;;12.90;8.88;;;15.90;99.90;;;;;;5135453;27;20057;-79
2021/07/23 01:56:01;;;;;;;16.08;9.30;;;15.90;99.90;;;;;;5135661;27;20087;-80
2021/07/23 01:58:30;;;;;;;12.38;9.35;;;15.90;99.90;;;;;;5136643;27;20023;-79
2021/07/23 02:00:57;;;;;;;15.60;10.93;;;15.90;99.90;;;;;;5135376;27;20027;-79
2021/07/23 02:03:24;;;;;;;13.88;10.27;;;15.90;99.90;;;;;;5136409;27;20402;-79
2021/07/23 02:05:49;;;;;;;13.75;9.65;;;15.80;99.90;;;;;;5135408;27;20027;-79
2021/07/23 02:08:15;;;;;;;15.52;9.00;;;15.80;99.90;;;;;;5136371;27;20035;-79
2021/07/23 02:10:41;;;;;;;11.68;9.32;;;15.80;99.90;;;;;;5134828;27;20019;-80
2021/07/23 02:13:06;;;;;;;15.13;9.13;;;15.90;99.90;;;;;;5134815;27;20560;-79
2021/07/23 02:15:33;;;;;;;14.88;8.93;;;15.90;99.90;;;;;;5136451;27;20487;-80
2021/07/23 02:17:58;;;;;;;13.35;8.55;;;15.90;99.90;;;;;;5135056;27;20467;-79
2021/07/23 02:20:24;;;;;;;11.30;8.38;;;15.90;99.90;;;;;;5135033;27;20110;-80
2021/07/23 02:22:49;;;;;;;16.08;8.60;;;16.00;99.90;;;;;;5136080;27;20030;-80
2021/07/23 02:25:15;;;;;;;12.52;8.75;;;16.00;99.90;;;;;;5134853;27;20023;-79
2021/07/23 02:27:41;;;;;;;12.32;8.68;;;16.00;99.90;;;;;;5134726;27;20418;-80
2021/07/23 02:30:07;;;;;;;16.88;9.70;;;16.00;99.90;;;;;;5134891;27;20031;-79
2021/07/23 02:32:33;;;;;;;14.02;8.60;;;16.00;99.90;;;;;;5134798;27;20031;-79
2021/07/23 02:34:58;;;;;;;13.85;8.13;;;16.00;99.90;;;;;;5135837;27;20031;-79
2021/07/23 02:37:24;;;;;;;15.77;10.45;;;16.00;99.90;;;;;;5136024;27;20442;-80
2021/07/23 02:39:49;;;;;;;15.27;9.20;;;16.00;99.90;;;;;;5135660;27;20031;-79
2021/07/23 02:42:15;;;;;;;16.67;9.60;;;16.00;99.90;;;;;;5133248;27;20020;-80
2021/07/23 02:44:41;;;;;;;14.18;9.75;;;16.00;99.90;;;;;;5134484;27;20033;-79
2021/07/23 02:47:06;;;;;;;13.43;8.98;;;16.00;99.90;;;;;;5134661;27;20353;-79
2021/07/23 02:49:32;;;;;;;13.45;9.30;;;16.00;99.90;;;;;;5134218;27;20465;-79
2021/07/23 02:51:57;;;;;;;16.08;9.07;;;16.00;99.90;;;;;;5135717;27;20027;-80
2021/07/23 02:54:23;;;;;;;13.45;8.38;;;16.00;99.90;;;;;;5130615;27;20030;-79
2021/07/23 02:56:49;;;;;;;13.02;8.18;;;16.00;99.90;;;;;;5115035;28;20102;-79
2021/07/23 02:59:14;;;;;;;12.93;9.00;;;15.90;99.90;;;;;;5096639;28;20553;-79
2021/07/23 03:01:40;;;;;;;13.13;8.80;;;16.00;99.90;;;;;;5102728;27;20034;-79
2021/07/23 03:04:05;;;;;;;11.95;8.25;;;16.00;99.90;;;;;;5133140;27;20106;-79
2021/07/23 03:06:31;;;;;;;11.90;8.95;;;16.00;99.90;;;;;;5134574;27;20031;-80
2021/07/23 03:08:58;;;;;;;12.52;9.00;;;16.00;99.90;;;;;;5133645;27;20500;-80
2021/07/23 03:11:23;;;;;;;13.38;8.40;;;16.00;99.90;;;;;;5129782;27;20464;-79
2021/07/23 03:13:49;;;;;;;15.15;9.07;;;16.00;99.90;;;;;;5114657;28;20153;-79
2021/07/23 03:16:15;;;;;;;11.75;8.90;;;16.00;99.90;;;;;;5113491;28;20027;-80
2021/07/23 03:18:41;;;;;;;12.20;8.30;;;16.00;99.90;;;;;;5113187;28;20062;-80
2021/07/23 03:21:09;;;;;;;11.73;8.20;;;16.00;99.90;;;;;;5114537;28;20097;-80
2021/07/23 03:23:35;;;;;;;15.13;8.85;;;16.00;99.90;;;;;;5113126;28;20106;-79
2021/07/23 03:26:08;;;;;;;14.13;8.52;;;16.00;99.90;;;;;;5106709;27;20449;-79
2021/07/23 03:28:34;;;;;;;11.60;8.30;;;15.90;99.90;;;;;;5116450;27;20868;-79
2021/07/23 03:30:59;;;;;;;11.98;7.68;;;16.00;99.90;;;;;;5135049;27;20102;-79
2021/07/23 03:33:25;;;;;;;11.52;9.45;;;16.00;99.90;;;;;;5133530;27;20026;-79
2021/07/23 03:35:51;;;;;;;15.63;9.90;;;16.00;99.90;;;;;;5129857;27;20065;-80
2021/07/23 03:38:16;;;;;;;14.15;9.45;;;16.00;99.90;;;;;;5118768;27;20027;-79
2021/07/23 03:40:42;;;;;;;15.75;9.02;;;16.00;99.90;;;;;;5133401;27;20031;-80
2021/07/23 03:43:07;;;;;;;13.93;9.27;;;16.00;99.90;;;;;;5132990;27;20488;-79
2021/07/23 03:45:33;;;;;;;13.13;9.27;;;16.00;99.90;;;;;;5129738;27;20031;-80
2021/07/23 03:47:58;;;;;;;13.85;9.43;;;16.10;99.90;;;;;;5113093;28;20031;-79
2021/07/23 03:50:24;;;;;;;11.20;8.20;;;16.00;99.90;;;;;;5114068;28;20491;-79
2021/07/23 03:52:50;;;;;;;15.48;9.85;;;16.00;99.90;;;;;;5113064;28;20027;-79
2021/07/23 03:55:16;;;;;;;15.35;9.75;;;16.00;99.90;;;;;;5112691;28;20050;-80
2021/07/23 03:57:42;;;;;;;12.93;8.88;;;16.00;99.90;;;;;;5112649;28;20072;-79
2021/07/23 04:00:09;;;;;;;13.07;8.40;;;16.00;99.90;;;;;;5125408;27;20032;-79
2021/07/23 04:02:37;;;;;;;11.30;7.63;;;16.00;99.90;;;;;;5132951;27;20024;-80
2021/07/23 04:05:03;;;;;;;11.88;8.45;;;16.00;99.90;;;;;;5133730;27;20076;-79
2021/07/23 04:07:33;;;;;;;12.60;9.10;;;16.10;99.90;;;;;;5132858;27;20022;-79
2021/07/23 04:10:00;;;;;;;12.00;9.00;;;16.10;99.90;;;;;;5132675;27;20027;-79
2021/07/23 04:12:26;;;;;;;13.55;8.73;;;16.20;99.90;;;;;;5133978;27;20035;-79
2021/07/23 04:14:51;;;;;;;12.60;9.52;;;16.30;99.90;;;;;;5134102;27;20073;-79
2021/07/23 04:17:17;;;;;;;9.90;8.30;;;16.30;99.90;;;;;;5134155;27;20038;-80
2021/07/23 04:19:42;;;;;;;12.57;9.40;;;16.30;99.90;;;;;;5132460;27;20031;-80
2021/07/23 04:22:08;;;;;;;11.93;8.73;;;16.30;99.90;;;;;;5132871;27;20011;-79
2021/07/23 04:24:34;;;;;;;12.40;8.63;;;16.30;99.90;;;;;;5133629;27;20033;-79
2021/07/23 04:27:00;;;;;;;10.63;7.72;;;16.30;99.90;;;;;;5132735;27;20387;-80
2021/07/23 04:29:26;;;;;;;16.80;9.05;;;16.40;99.90;;;;;;5132602;27;20035;-79
2021/07/23 04:31:51;;;;;;;11.35;8.38;;;16.40;99.90;;;;;;5132405;27;20019;-79
2021/07/23 04:34:17;;;;;;;10.20;8.18;;;16.50;99.90;;;;;;5132349;27;20019;-79
2021/07/23 04:36:43;;;;;;;13.25;8.65;;;16.60;99.90;;;;;;5133802;27;20031;-79
2021/07/23 04:39:08;;;;;;;9.85;7.97;;;16.60;99.90;;;;;;5131778;27;20023;-79
2021/07/23 04:41:34;;;;;;;10.95;8.15;;;16.70;99.90;;;;;;5133497;27;20059;-80
2021/07/23 04:44:00;;;;;;;7.70;6.65;;;16.70;99.90;;;;;;5132563;27;20060;-79
2021/07/23 04:46:26;;;;;;;11.38;8.07;;;16.70;99.90;;;;;;5133518;28;20062;-79
2021/07/23 04:48:51;;;;;;;15.40;8.98;;;16.70;99.90;;;;;;5131947;28;20358;-79
2021/07/23 04:51:17;;;;;;;11.88;9.00;;;16.80;99.90;;;;;;5131001;28;20537;-80
2021/07/23 04:53:42;;;;;;;12.45;8.90;;;16.80;99.90;;;;;;5131369;28;20027;-79
2021/07/23 04:56:08;;;;;;;10.35;8.50;;;16.90;99.90;;;;;;5133115;28;20357;-79
2021/07/23 04:58:34;;;;;;;12.75;8.50;;;16.90;99.90;;;;;;5132046;28;20100;-79
2021/07/23 05:01:00;;;;;;;17.60;9.43;;;17.00;99.90;;;;;;5133564;28;20109;-79
2021/07/23 05:03:38;;;;;;;22.25;10.27;;;17.10;99.90;;;;;;5133220;27;20018;-79
2021/07/23 05:06:08;;;;;;;17.88;10.85;;;17.10;99.90;;;;;;5136712;27;20026;-79
2021/07/23 05:08:37;;;;;;;12.35;8.70;;;17.20;99.90;;;;;;5137417;27;20015;-79
2021/07/23 05:11:13;;;;;;;29.77;9.13;;;17.30;99.90;;;;;;5137719;27;20034;-80
2021/07/23 05:13:38;;;;;;;12.43;7.85;;;17.30;99.90;;;;;;5136322;27;20019;-80
2021/07/23 05:16:04;;;;;;;14.05;9.52;;;17.30;99.90;;;;;;5136389;27;20020;-80
2021/07/23 05:18:31;;;;;;;16.08;10.55;;;17.30;99.90;;;;;;5136106;27;20549;-79
2021/07/23 05:20:57;;;;;;;13.13;9.43;;;17.40;99.90;;;;;;5135646;27;20058;-80
2021/07/23 05:23:23;;;;;;;15.10;9.27;;;17.50;99.90;;;;;;5136064;27;20023;-80
2021/07/23 05:25:49;;;;;;;13.73;9.90;;;17.50;99.90;;;;;;5135429;27;20038;-79
2021/07/23 05:28:15;;;;;;;14.18;10.30;;;17.50;99.90;;;;;;5136032;27;20069;-79
2021/07/23 05:30:41;;;;;;;15.23;10.32;;;17.60;99.90;;;;;;5135041;27;20019;-80
2021/07/23 05:33:07;;;;;;;12.18;8.82;;;17.70;99.90;;;;;;5137303;27;20086;-79
2021/07/23 05:35:33;;;;;;;12.48;9.48;;;17.70;99.90;;;;;;5137061;27;20110;-79
2021/07/23 05:37:58;;;;;;;18.15;9.18;;;17.80;99.90;;;;;;5135908;27;20058;-78
2021/07/23 05:40:24;;;;;;;17.90;9.48;;;17.80;99.90;;;;;;5135768;27;20062;-79
2021/07/23 05:42:53;;;;;;;12.00;9.13;;;17.90;99.90;;;;;;5124180;27;20012;-79
2021/07/23 05:45:20;;;;;;;15.38;11.10;;;18.00;99.90;;;;;;5116540;27;20031;-79
2021/07/23 05:47:46;;;;;;;13.38;9.13;;;18.10;99.90;;;;;;5115265;28;20024;-80
2021/07/23 05:50:12;;;;;;;16.10;10.18;;;18.10;99.90;;;;;;5125955;27;20534;-80
2021/07/23 05:52:37;;;;;;;15.55;9.07;;;18.20;99.90;;;;;;5131493;27;20114;-80
2021/07/23 05:55:03;;;;;;;16.40;10.48;;;18.20;99.90;;;;;;5132354;27;20058;-79
2021/07/23 05:57:29;;;;;;;18.27;13.82;;;18.20;99.90;;;;;;5136456;27;20020;-79
2021/07/23 05:59:54;;;;;;;34.95;21.65;;;18.30;99.90;;;;;;5132409;27;20489;-79
2021/07/23 06:02:20;;;;;;;44.30;30.25;;;18.40;99.90;;;;;;5134929;27;20495;-80
2021/07/23 06:04:45;;;;;;;46.78;31.52;;;18.40;99.90;;;;;;5133903;27;20038;-79
2021/07/23 06:07:14;;;;;;;66.88;43.25;;;18.50;99.90;;;;;;5129069;27;20035;-80
2021/07/23 06:09:40;;;;;;;85.32;52.28;;;18.60;99.90;;;;;;5116773;27;20435;-79
2021/07/23 06:12:06;;;;;;;89.57;53.03;;;18.70;99.90;;;;;;5113415;28;20016;-80
2021/07/23 06:14:31;;;;;;;16.50;11.70;;;18.80;99.90;;;;;;5113233;28;20515;-80
2021/07/23 06:16:58;;;;;;;11.63;9.07;;;18.90;99.90;;;;;;5112156;28;20012;-79
2021/07/23 06:19:24;;;;;;;22.45;9.48;;;19.00;99.90;;;;;;5133330;27;20031;-79
2021/07/23 06:21:49;;;;;;;10.48;7.65;;;19.10;99.90;;;;;;5127487;27;20038;-80
2021/07/23 06:24:15;;;;;;;10.70;6.95;;;19.20;97.80;;;;;;5121007;27;20046;-79
2021/07/23 06:26:41;;;;;;;9.27;7.60;;;19.20;87.80;;;;;;5133211;27;20487;-79
2021/07/23 06:29:06;;;;;;;10.85;7.25;;;19.30;88.10;;;;;;5132635;27;20027;-79
2021/07/23 06:31:34;;;;;;;7.72;6.80;;;19.30;86.10;;;;;;5133024;27;20066;-79
2021/07/23 06:34:00;;;;;;;9.05;7.15;;;19.30;86.80;;;;;;5131845;27;20047;-78
2021/07/23 06:36:25;;;;;;;8.82;6.18;;;19.40;88.60;;;;;;5134321;27;20373;-79
2021/07/23 06:38:51;;;;;;;10.32;7.15;;;19.50;87.60;;;;;;5133476;27;20022;-79
2021/07/23 06:41:17;;;;;;;7.03;6.32;;;19.60;85.90;;;;;;5133702;27;20118;-78
2021/07/23 06:43:43;;;;;;;7.75;6.60;;;19.70;84.60;;;;;;5131577;27;20030;-79
2021/07/23 06:46:08;;;;;;;8.60;7.05;;;19.70;80.50;;;;;;5131580;27;20501;-79
2021/07/23 06:48:36;;;;;;;9.07;6.40;;;19.80;82.10;;;;;;5132319;27;20023;-79
2021/07/23 06:51:03;;;;;;;9.27;6.05;;;19.90;81.30;;;;;;5133020;27;20039;-78
2021/07/23 06:53:29;;;;;;;9.63;5.88;;;20.00;78.60;;;;;;5134139;27;20476;-78
2021/07/23 06:55:54;;;;;;;8.43;6.28;;;20.00;80.00;;;;;;5130857;27;20043;-79
2021/07/23 06:58:20;;;;;;;9.43;5.65;;;20.10;78.40;;;;;;5132478;27;20030;-79
2021/07/23 07:00:46;;;;;;;10.23;6.65;;;20.30;78.30;;;;;;5127103;27;20032;-78
2021/07/23 07:03:11;;;;;;;9.00;7.10;;;20.40;78.40;;;;;;5133545;27;20561;-80
2021/07/23 07:05:37;;;;;;;7.97;6.43;;;20.60;77.50;;;;;;5131970;27;20033;-80
2021/07/23 07:08:03;;;;;;;7.93;6.45;;;20.60;76.50;;;;;;5114673;27;20061;-80
2021/07/23 07:10:29;;;;;;;12.93;7.07;;;20.70;75.50;;;;;;5114679;27;20108;-80
2021/07/23 07:12:58;;;;;;;9.50;5.97;;;20.80;77.10;;;;;;5114141;27;20038;-79
2021/07/23 07:15:24;;;;;;;7.88;6.50;;;20.90;76.80;;;;;;5094606;28;20019;-80
2021/07/23 07:18:00;;;;;;;7.22;6.03;;;21.00;73.80;;;;;;5126570;27;20031;-80
2021/07/23 07:20:27;;;;;;;13.05;7.13;;;21.00;72.30;;;;;;5130750;27;20372;-80
2021/07/23 07:22:53;;;;;;;10.95;6.22;;;21.10;71.90;;;;;;5131069;27;20472;-79
2021/07/23 07:25:20;;;;;;;10.38;7.30;;;21.20;70.80;;;;;;5126557;27;20525;-79
2021/07/23 07:27:46;;;;;;;23.13;9.20;;;21.30;71.90;;;;;;5131190;27;20065;-80
2021/07/23 07:30:11;;;;;;;9.80;7.32;;;21.40;72.20;;;;;;5131819;27;20026;-80
2021/07/23 07:32:37;;;;;;;7.78;6.75;;;21.50;70.70;;;;;;5131869;27;20038;-80
2021/07/23 07:35:03;;;;;;;8.43;7.03;;;21.60;71.60;;;;;;5130635;27;20437;-79
2021/07/23 07:37:30;;;;;;;10.88;7.13;;;21.70;70.10;;;;;;5127870;27;20119;-80
2021/07/23 07:39:56;;;;;;;10.45;7.00;;;21.80;69.40;;;;;;5110010;28;20105;-80
2021/07/23 07:42:22;;;;;;;8.75;6.60;;;21.90;71.40;;;;;;5111081;28;20032;-80
2021/07/23 07:44:49;;;;;;;10.13;7.13;;;22.10;70.80;;;;;;5122222;27;20400;-79
2021/07/23 07:47:15;;;;;;;10.10;6.95;;;22.10;69.10;;;;;;5121766;27;20039;-80
2021/07/23 07:49:41;;;;;;;9.95;7.47;;;22.20;70.40;;;;;;5129108;27;20058;-80
2021/07/23 07:52:07;;;;;;;9.25;6.97;;;22.30;68.50;;;;;;5130835;27;20549;-80
2021/07/23 07:54:32;;;;;;;9.52;6.85;;;22.50;71.60;;;;;;5132291;27;20033;-80
2021/07/23 07:57:06;;;;;;;11.85;8.70;;;22.70;70.20;;;;;;5130705;27;20031;-80
2021/07/23 07:59:32;;;;;;;11.95;7.47;;;22.90;68.70;;;;;;5127745;27;20117;-80
2021/07/23 08:01:57;;;;;;;9.18;6.78;;;22.80;66.40;;;;;;5131843;27;20109;-80
2021/07/23 08:04:23;;;;;;;9.00;7.10;;;22.90;65.90;;;;;;5131169;27;20539;-80
2021/07/23 08:06:48;;;;;;;7.35;6.57;;;23.00;65.60;;;;;;5130576;27;20027;-80
2021/07/23 08:09:15;;;;;;;10.10;7.50;;;22.90;64.60;;;;;;5130647;27;20027;-80
2021/07/23 08:11:41;;;;;;;7.25;6.28;;;23.10;65.10;;;;;;5130908;27;20120;-80
2021/07/23 08:14:10;;;;;;;9.88;7.47;;;23.30;62.10;;;;;;5125078;27;20040;-80
2021/07/23 08:16:35;;;;;;;10.45;7.20;;;23.10;61.80;;;;;;5132387;27;20062;-80
2021/07/23 08:19:04;;;;;;;12.18;7.30;;;23.10;62.20;;;;;;5129743;27;20484;-80
2021/07/23 08:21:32;;;;;;;7.75;6.63;;;23.10;61.30;;;;;;5132008;27;20043;-80
2021/07/23 08:24:01;;;;;;;8.93;6.53;;;23.10;61.50;;;;;;5130721;27;20023;-80
2021/07/23 08:26:27;;;;;;;8.75;6.10;;;23.30;60.80;;;;;;5130746;27;20224;-80
2021/07/23 08:28:52;;;;;;;8.75;6.90;;;23.60;59.90;;;;;;5129349;27;20111;-80
2021/07/23 08:31:18;;;;;;;12.98;7.38;;;23.90;60.60;;;;;;5130696;27;20027;-81
2021/07/23 08:33:44;;;;;;;10.70;7.10;;;23.90;58.90;;;;;;5130398;27;20023;-80
2021/07/23 08:36:09;;;;;;;10.00;6.53;;;23.90;59.20;;;;;;5129664;27;20084;-80
2021/07/23 08:38:35;;;;;;;10.40;6.93;;;23.80;58.40;;;;;;5129791;27;20118;-80
2021/07/23 08:41:05;;;;;;;10.32;5.90;;;23.70;58.70;;;;;;5129602;27;20035;-80
2021/07/23 08:43:31;;;;;;;7.57;6.43;;;23.60;58.20;;;;;;5131992;27;20034;-81
2021/07/23 08:45:57;;;;;;;9.18;6.45;;;23.30;60.40;;;;;;5113224;28;20027;-80
2021/07/23 08:48:23;;;;;;;8.27;6.07;;;23.10;63.30;;;;;;5111618;28;20043;-80
2021/07/23 08:50:49;;;;;;;8.32;5.65;;;23.10;62.20;;;;;;5120165;28;20457;-80
2021/07/23 08:53:14;;;;;;;7.25;6.03;;;23.10;62.20;;;;;;5129202;28;20049;-80
2021/07/23 08:55:40;;;;;;;8.27;5.85;;;23.00;61.50;;;;;;5130620;28;20118;-80
2021/07/23 08:58:10;;;;;;;21.42;14.40;;;22.80;60.90;;;;;;5131173;27;20058;-79
2021/07/23 09:00:37;;;;;;;13.52;9.27;;;22.80;65.30;;;;;;5127161;27;20503;-80
2021/07/23 09:03:07;;;;;;;21.10;12.90;;;22.80;67.60;;;;;;5128580;28;20139;-80
2021/07/23 09:05:38;;;;;;;18.08;11.10;;;22.90;66.10;;;;;;5112974;28;20108;-80
2021/07/23 09:08:15;;;;;;;16.38;12.13;;;22.90;66.30;;;;;;5103738;28;20035;-80
2021/07/23 09:10:42;;;;;;;9.38;8.00;;;23.00;66.10;;;;;;5125260;28;20019;-81
2021/07/23 09:13:09;;;;;;;6.25;5.65;;;23.60;62.70;;;;;;5132113;28;20030;-80
2021/07/23 09:15:41;;;;;;;9.20;6.00;;;23.70;57.50;;;;;;5132023;28;20084;-80
2021/07/23 09:18:18;;;;;;;7.90;6.10;;;23.80;57.20;;;;;;5127487;28;20547;-81
2021/07/23 09:21:02;;;;;;;10.88;6.47;;;23.90;57.70;;;;;;5118923;28;20028;-81
2021/07/23 09:23:30;;;;;;;7.35;6.07;;;24.00;56.60;;;;;;5113512;28;20110;-81
2021/07/23 09:26:02;;;;;;;6.25;5.25;;;23.90;55.80;;;;;;5129226;28;20024;-82
2021/07/23 09:28:38;;;;;;;10.15;5.72;;;23.80;55.90;;;;;;5130949;28;20022;-81
2021/07/23 09:31:18;;;;;;;7.93;5.68;;;23.80;57.90;;;;;;5130421;28;20027;-81
2021/07/23 09:33:44;;;;;;;9.77;6.22;;;23.80;58.00;;;;;;5127669;28;20041;-81
2021/07/23 09:36:11;;;;;;;9.18;6.15;;;23.70;57.40;;;;;;5131355;27;20031;-82
2021/07/23 09:38:37;;;;;;;7.40;5.95;;;23.50;56.70;;;;;;5127349;28;20426;-82
2021/07/23 09:41:03;;;;;;;8.55;5.47;;;23.40;56.70;;;;;;5129154;28;20043;-81
2021/07/23 09:43:34;;;;;;;12.77;6.32;;;23.40;58.40;;;;;;5120429;27;20024;-81
2021/07/23 09:46:18;;;;;;;10.50;6.70;;;23.50;58.60;;;;;;5124394;27;20019;-82
2021/07/23 09:48:48;;;;;;;7.75;5.88;;;23.50;57.70;;;;;;5110916;28;20044;-81
2021/07/23 09:51:14;;;;;;;10.55;6.20;;;23.40;57.60;;;;;;5116074;27;20039;-82
2021/07/23 09:53:40;;;;;;;7.00;5.53;;;23.50;57.30;;;;;;5120606;27;20053;-82
2021/07/23 09:56:10;;;;;;;9.00;5.57;;;23.50;57.70;;;;;;5122264;27;20099;-82
2021/07/23 09:58:52;;;;;;;6.53;5.30;;;23.50;57.10;;;;;;5131922;27;20031;-82
2021/07/23 10:01:30;;;;;;;9.95;6.53;;;23.70;55.40;;;;;;5119842;27;20095;-83
2021/07/23 10:03:58;;;;;;;6.97;5.43;;;23.70;54.30;;;;;;5133754;27;20035;-83
2021/07/23 10:06:52;;;;;;;8.27;6.03;;;23.90;55.00;;;;;;5133444;27;20023;-82
2021/07/23 10:09:21;;;;;;;7.55;5.50;;;24.20;54.10;;;;;;5132621;27;20042;-81
2021/07/23 10:11:46;;;;;;;8.43;5.18;;;24.50;53.00;;;;;;5133638;27;20445;-82
2021/07/23 10:14:19;;;;;;;7.75;5.45;;;24.70;53.40;;;;;;5132236;27;20111;-82
2021/07/23 10:16:47;;;;;;;5.78;5.18;;;24.70;53.10;;;;;;5133076;27;20046;-82
2021/07/23 10:19:14;;;;;;;7.07;5.80;;;24.90;52.20;;;;;;5131892;27;20123;-82
2021/07/23 10:21:39;;;;;;;10.68;5.38;;;24.80;53.20;;;;;;5133148;27;20027;-81
2021/07/23 10:24:07;;;;;;;8.73;5.68;;;24.80;53.40;;;;;;5132958;27;20104;-82
2021/07/23 10:26:33;;;;;;;6.35;5.25;;;25.00;52.70;;;;;;5132592;27;20508;-82
2021/07/23 10:28:59;;;;;;;7.60;5.28;;;25.00;51.20;;;;;;5124728;27;20035;-82
2021/07/23 10:31:25;;;;;;;7.60;5.38;;;24.80;51.50;;;;;;5107344;27;20541;-82
2021/07/23 10:33:59;;;;;;;7.85;6.40;;;24.80;51.50;;;;;;5115639;27;20033;-81
2021/07/23 10:36:30;;;;;;;8.48;5.95;;;24.80;50.40;;;;;;5133066;27;20048;-82
2021/07/23 10:39:05;;;;;;;6.68;5.60;;;25.00;52.10;;;;;;5131678;27;20532;-82
2021/07/23 10:41:45;;;;;;;7.40;5.90;;;25.30;51.00;;;;;;5125672;27;20118;-81
2021/07/23 10:44:33;;;;;;;7.80;6.15;;;25.60;52.40;;;;;;5125019;27;20102;-80
2021/07/23 10:46:59;;;;;;;7.47;5.72;;;25.70;50.40;;;;;;5125792;27;20201;-81
2021/07/23 10:49:30;;;;;;;6.55;5.22;;;25.60;50.60;;;;;;5126200;27;20054;-82
2021/07/23 10:52:00;;;;;;;6.32;5.50;;;25.60;49.70;;;;;;5129883;27;20476;-83
2021/07/23 10:54:31;;;;;;;8.55;5.72;;;25.90;51.40;;;;;;5122248;27;20081;-82
2021/07/23 10:57:03;;;;;;;6.95;5.78;;;26.00;49.20;;;;;;5120121;27;20478;-82
2021/07/23 10:59:43;;;;;;;6.90;5.63;;;26.00;48.00;;;;;;5121019;27;20440;-81
2021/07/23 11:02:15;;;;;;;8.55;6.30;;;26.00;48.00;;;;;;5118230;27;20370;-81
2021/07/23 11:04:45;;;;;;;6.03;5.35;;;26.30;47.40;;;;;;5130834;27;20066;-81
2021/07/23 11:07:12;;;;;;;7.78;5.50;;;26.10;47.70;;;;;;5119790;27;20023;-82
2021/07/23 11:09:39;;;;;;;7.07;5.65;;;26.00;49.30;;;;;;5129240;27;20484;-82
2021/07/23 11:12:13;;;;;;;7.40;5.10;;;26.40;51.10;;;;;;5131290;27;20666;-81
2021/07/23 11:14:39;;;;;;;5.88;5.30;;;26.30;48.60;;;;;;5131649;27;20035;-83
2021/07/23 11:17:05;;;;;;;5.57;5.07;;;26.20;47.20;;;;;;5132721;27;20017;-81
2021/07/23 11:19:30;;;;;;;7.10;6.18;;;26.00;48.30;;;;;;5131224;27;20057;-82
2021/07/23 11:21:56;;;;;;;5.90;5.32;;;25.90;47.10;;;;;;5132082;27;20015;-81
2021/07/23 11:24:21;;;;;;;6.38;5.72;;;25.70;46.30;;;;;;5128377;27;20453;-83
2021/07/23 11:26:53;;;;;;;6.70;5.88;;;25.70;47.30;;;;;;5132028;27;20015;-80
2021/07/23 11:29:32;;;;;;;6.20;5.22;;;25.90;48.00;;;;;;5131281;27;20056;-81
2021/07/23 11:32:12;;;;;;;14.63;7.13;;;25.80;48.80;;;;;;5132889;27;20073;-83
2021/07/23 11:34:40;;;;;;;12.70;9.52;;;25.80;49.10;;;;;;5127410;27;20031;-81
2021/07/23 11:37:29;;;;;;;11.15;7.95;;;25.80;49.70;;;;;;5130505;27;20038;-81
2021/07/23 11:40:00;;;;;;;9.20;6.80;;;25.90;50.10;;;;;;5130043;27;20039;-82
2021/07/23 11:42:28;;;;;;;8.45;5.70;;;26.20;50.60;;;;;;5137843;27;20027;-80
2021/07/23 11:44:57;;;;;;;6.82;5.70;;;26.20;50.20;;;;;;5122729;27;20496;-80
2021/07/23 11:47:31;;;;;;;7.53;5.55;;;26.30;49.60;;;;;;5130346;27;20028;-80
2021/07/23 11:49:59;;;;;;;11.77;6.03;;;26.50;48.10;;;;;;5119598;27;20476;-80
2021/07/23 11:52:25;;;;;;;6.82;5.95;;;26.20;48.40;;;;;;5121716;27;20484;-80
2021/07/23 11:54:59;;;;;;;8.70;6.90;;;26.10;49.30;;;;;;5110630;27;20031;-80
2021/07/23 11:57:26;;;;;;;10.55;6.25;;;26.00;48.50;;;;;;5128117;27;20029;-80
2021/07/23 11:59:52;;;;;;;9.30;5.43;;;25.90;46.50;;;;;;5122607;27;20051;-81
2021/07/23 12:02:18;;;;;;;8.85;5.93;;;25.80;45.80;;;;;;5116937;27;20051;-81
2021/07/23 12:04:44;;;;;;;7.80;5.75;;;25.90;46.60;;;;;;5116272;27;20032;-82
2021/07/23 12:07:15;;;;;;;10.60;6.00;;;26.10;46.30;;;;;;5110038;28;20088;-82
2021/07/23 12:09:41;;;;;;;7.00;5.50;;;26.20;47.10;;;;;;5126771;27;20088;-81
2021/07/23 12:12:07;;;;;;;10.52;5.95;;;26.00;47.60;;;;;;5129354;27;20291;-80
2021/07/23 12:14:33;;;;;;;8.90;6.03;;;25.80;48.60;;;;;;5129874;27;20480;-82
2021/07/23 12:16:58;;;;;;;9.90;5.93;;;25.40;48.30;;;;;;5130970;27;20027;-81
2021/07/23 12:19:25;;;;;;;7.28;5.70;;;25.00;49.20;;;;;;5129397;27;20532;-82
2021/07/23 12:22:07;;;;;;;6.55;5.95;;;24.50;50.00;;;;;;5129123;27;20069;-82
2021/07/23 12:24:32;;;;;;;6.88;5.97;;;24.40;50.50;;;;;;5128445;27;20027;-82
2021/07/23 12:27:13;;;;;;;9.77;6.32;;;24.40;51.30;;;;;;5128720;27;20388;-81
2021/07/23 12:29:39;;;;;;;7.40;5.97;;;24.40;52.70;;;;;;5131114;27;20473;-81
2021/07/23 12:32:26;;;;;;;7.55;6.55;;;24.20;52.30;;;;;;5130145;27;20110;-81
2021/07/23 12:35:00;;;;;;;12.05;6.88;;;24.20;53.50;;;;;;5127274;27;20097;-81
2021/07/23 12:37:27;;;;;;;8.20;6.82;;;24.20;51.80;;;;;;5122773;27;20384;-82
2021/07/23 12:40:02;;;;;;;6.95;6.00;;;24.20;53.30;;;;;;5121216;27;20058;-82